sensor_id;sensor_type;location;lat;lon;timestamp;temperature;humidity
10316;DHT22;5203;48.976;8.306;2022-09-20T00:01:10;12.90;83.20
10316;DHT22;5203;48.976;8.306;2022-09-20T00:03:37;12.90;83.30
10316;DHT22;5203;48.976;8.306;2022-09-20T00:06:05;12.90;84.10
10316;DHT22;5203;48.976;8.306;2022-09-20T00:08:31;12.80;84.00
10316;DHT22;5203;48.976;8.306;2022-09-20T00:11:26;12.70;84.60
10316;DHT22;5203;48.976;8.306;2022-09-20T00:13:54;12.80;84.40
10316;DHT22;5203;48.976;8.306;2022-09-20T00:16:27;12.70;84.40
10316;DHT22;5203;48.976;8.306;2022-09-20T00:18:55;12.70;84.40
10316;DHT22;5203;48.976;8.306;2022-09-20T00:21:26;12.70;83.50
10316;DHT22;5203;48.976;8.306;2022-09-20T00:23:52;12.70;83.90
10316;DHT22;5203;48.976;8.306;2022-09-20T00:26:18;12.70;84.30
10316;DHT22;5203;48.976;8.306;2022-09-20T00:28:44;12.60;84.60
10316;DHT22;5203;48.976;8.306;2022-09-20T00:31:12;12.60;84.60
10316;DHT22;5203;48.976;8.306;2022-09-20T00:33:38;12.60;83.80
10316;DHT22;5203;48.976;8.306;2022-09-20T00:36:23;12.60;83.40
10316;DHT22;5203;48.976;8.306;2022-09-20T00:38:54;12.60;83.50
10316;DHT22;5203;48.976;8.306;2022-09-20T00:41:19;12.70;83.50
10316;DHT22;5203;48.976;8.306;2022-09-20T00:43:46;12.70;83.10
10316;DHT22;5203;48.976;8.306;2022-09-20T00:48:47;12.60;83.50
10316;DHT22;5203;48.976;8.306;2022-09-20T00:51:17;12.60;83.70
10316;DHT22;5203;48.976;8.306;2022-09-20T00:53:47;12.60;83.20
10316;DHT22;5203;48.976;8.306;2022-09-20T00:56:28;12.40;83.30
10316;DHT22;5203;48.976;8.306;2022-09-20T00:59:16;12.30;84.40
10316;DHT22;5203;48.976;8.306;2022-09-20T01:01:47;12.40;84.50
10316;DHT22;5203;48.976;8.306;2022-09-20T01:04:15;12.50;84.40
10316;DHT22;5203;48.976;8.306;2022-09-20T01:06:42;12.50;84.30
10316;DHT22;5203;48.976;8.306;2022-09-20T01:09:09;12.50;84.20
10316;DHT22;5203;48.976;8.306;2022-09-20T01:11:35;12.50;83.70
10316;DHT22;5203;48.976;8.306;2022-09-20T01:14:02;12.50;83.60
10316;DHT22;5203;48.976;8.306;2022-09-20T01:16:28;12.50;83.70
10316;DHT22;5203;48.976;8.306;2022-09-20T01:18:57;12.50;84.10
10316;DHT22;5203;48.976;8.306;2022-09-20T01:21:25;12.50;84.50
10316;DHT22;5203;48.976;8.306;2022-09-20T01:24:30;12.50;84.70
10316;DHT22;5203;48.976;8.306;2022-09-20T01:32:35;12.40;84.50
10316;DHT22;5203;48.976;8.306;2022-09-20T01:35:03;12.30;85.00
10316;DHT22;5203;48.976;8.306;2022-09-20T01:46:01;12.30;85.90
10316;DHT22;5203;48.976;8.306;2022-09-20T01:48:39;12.30;85.60
10316;DHT22;5203;48.976;8.306;2022-09-20T02:08:01;12.20;86.20
10316;DHT22;5203;48.976;8.306;2022-09-20T02:10:56;12.20;85.90
10316;DHT22;5203;48.976;8.306;2022-09-20T02:16:21;12.20;86.00
10316;DHT22;5203;48.976;8.306;2022-09-20T02:19:14;12.20;86.00
10316;DHT22;5203;48.976;8.306;2022-09-20T02:22:21;12.20;86.20
10316;DHT22;5203;48.976;8.306;2022-09-20T02:25:34;12.30;86.00
10316;DHT22;5203;48.976;8.306;2022-09-20T02:28:33;12.20;85.70
10316;DHT22;5203;48.976;8.306;2022-09-20T02:39:34;12.30;86.00
10316;DHT22;5203;48.976;8.306;2022-09-20T02:42:12;12.30;85.90
10316;DHT22;5203;48.976;8.306;2022-09-20T02:47:39;12.20;86.00
10316;DHT22;5203;48.976;8.306;2022-09-20T03:04:24;12.20;86.30
10316;DHT22;5203;48.976;8.306;2022-09-20T03:07:53;12.20;87.00
10316;DHT22;5203;48.976;8.306;2022-09-20T03:15:53;12.20;87.00
10316;DHT22;5203;48.976;8.306;2022-09-20T03:24:24;12.10;88.30
10316;DHT22;5203;48.976;8.306;2022-09-20T03:47:09;12.10;88.40
10316;DHT22;5203;48.976;8.306;2022-09-20T03:52:49;12.10;88.80
10316;DHT22;5203;48.976;8.306;2022-09-20T04:14:24;11.90;89.50
10316;DHT22;5203;48.976;8.306;2022-09-20T04:17:31;12.00;89.50
10316;DHT22;5203;48.976;8.306;2022-09-20T04:20:39;12.00;89.00
10316;DHT22;5203;48.976;8.306;2022-09-20T04:25:49;12.00;89.40
10316;DHT22;5203;48.976;8.306;2022-09-20T04:28:24;12.00;89.50
10316;DHT22;5203;48.976;8.306;2022-09-20T04:30:54;12.10;89.60
10316;DHT22;5203;48.976;8.306;2022-09-20T04:33:28;12.00;89.50
10316;DHT22;5203;48.976;8.306;2022-09-20T05:10:31;12.20;87.40
10316;DHT22;5203;48.976;8.306;2022-09-20T05:15:53;12.10;87.80
10316;DHT22;5203;48.976;8.306;2022-09-20T05:21:31;11.90;88.50
10316;DHT22;5203;48.976;8.306;2022-09-20T05:29:46;11.80;88.60
10316;DHT22;5203;48.976;8.306;2022-09-20T05:40:29;12.00;87.90
10316;DHT22;5203;48.976;8.306;2022-09-20T05:43:17;12.00;87.00
10316;DHT22;5203;48.976;8.306;2022-09-20T05:46:53;11.90;87.90
10316;DHT22;5203;48.976;8.306;2022-09-20T05:49:19;11.80;88.60
10316;DHT22;5203;48.976;8.306;2022-09-20T05:52:15;11.80;88.80
10316;DHT22;5203;48.976;8.306;2022-09-20T05:55:14;11.70;89.30
10316;DHT22;5203;48.976;8.306;2022-09-20T05:58:13;11.60;91.20
10316;DHT22;5203;48.976;8.306;2022-09-20T06:01:27;11.50;92.10
10316;DHT22;5203;48.976;8.306;2022-09-20T06:09:26;11.80;91.30
10316;DHT22;5203;48.976;8.306;2022-09-20T06:22:33;11.70;92.30
10316;DHT22;5203;48.976;8.306;2022-09-20T06:25:14;11.70;92.70
10316;DHT22;5203;48.976;8.306;2022-09-20T06:28:12;11.80;94.00
10316;DHT22;5203;48.976;8.306;2022-09-20T06:30:46;11.80;94.30
10316;DHT22;5203;48.976;8.306;2022-09-20T06:33:32;11.70;93.70
10316;DHT22;5203;48.976;8.306;2022-09-20T06:36:30;11.70;93.80
10316;DHT22;5203;48.976;8.306;2022-09-20T06:42:11;11.40;97.20
10316;DHT22;5203;48.976;8.306;2022-09-20T06:44:37;11.30;97.60
10316;DHT22;5203;48.976;8.306;2022-09-20T06:47:12;11.10;98.50
10316;DHT22;5203;48.976;8.306;2022-09-20T06:49:38;11.40;96.80
10316;DHT22;5203;48.976;8.306;2022-09-20T06:52:18;11.40;96.90
10316;DHT22;5203;48.976;8.306;2022-09-20T06:54:46;11.40;97.10
10316;DHT22;5203;48.976;8.306;2022-09-20T06:57:16;11.40;97.50
10316;DHT22;5203;48.976;8.306;2022-09-20T06:59:43;11.60;96.20
10316;DHT22;5203;48.976;8.306;2022-09-20T07:02:09;11.80;95.10
10316;DHT22;5203;48.976;8.306;2022-09-20T07:04:35;12.00;94.30
10316;DHT22;5203;48.976;8.306;2022-09-20T07:07:05;12.00;92.90
10316;DHT22;5203;48.976;8.306;2022-09-20T07:09:31;12.00;95.30
10316;DHT22;5203;48.976;8.306;2022-09-20T07:11:57;12.10;93.40
10316;DHT22;5203;48.976;8.306;2022-09-20T07:14:26;12.20;93.10
10316;DHT22;5203;48.976;8.306;2022-09-20T07:16:53;12.10;92.10
10316;DHT22;5203;48.976;8.306;2022-09-20T07:19:19;11.90;93.80
10316;DHT22;5203;48.976;8.306;2022-09-20T07:21:45;11.80;94.80
10316;DHT22;5203;48.976;8.306;2022-09-20T07:24:10;12.00;94.20
10316;DHT22;5203;48.976;8.306;2022-09-20T07:26:38;12.00;93.90
10316;DHT22;5203;48.976;8.306;2022-09-20T07:29:04;12.00;94.20
10316;DHT22;5203;48.976;8.306;2022-09-20T07:31:32;12.00;93.60
10316;DHT22;5203;48.976;8.306;2022-09-20T07:33:58;11.90;93.40
10316;DHT22;5203;48.976;8.306;2022-09-20T07:36:23;11.80;94.60
10316;DHT22;5203;48.976;8.306;2022-09-20T07:38:51;11.90;94.20
10316;DHT22;5203;48.976;8.306;2022-09-20T07:41:17;11.90;93.60
10316;DHT22;5203;48.976;8.306;2022-09-20T07:43:44;12.20;92.40
10316;DHT22;5203;48.976;8.306;2022-09-20T07:46:10;12.50;90.10
10316;DHT22;5203;48.976;8.306;2022-09-20T07:48:38;12.60;90.40
10316;DHT22;5203;48.976;8.306;2022-09-20T07:51:06;12.60;89.50
10316;DHT22;5203;48.976;8.306;2022-09-20T07:53:32;12.50;90.40
10316;DHT22;5203;48.976;8.306;2022-09-20T07:56:10;12.60;90.90
10316;DHT22;5203;48.976;8.306;2022-09-20T07:58:36;12.60;89.90
10316;DHT22;5203;48.976;8.306;2022-09-20T08:01:04;12.60;91.40
10316;DHT22;5203;48.976;8.306;2022-09-20T08:03:32;12.80;89.20
10316;DHT22;5203;48.976;8.306;2022-09-20T08:06:02;12.80;89.90
10316;DHT22;5203;48.976;8.306;2022-09-20T08:08:32;12.70;90.40
10316;DHT22;5203;48.976;8.306;2022-09-20T08:11:03;12.70;91.20
10316;DHT22;5203;48.976;8.306;2022-09-20T08:13:30;12.70;89.70
10316;DHT22;5203;48.976;8.306;2022-09-20T08:16:04;12.70;90.50
10316;DHT22;5203;48.976;8.306;2022-09-20T08:18:30;12.80;89.70
10316;DHT22;5203;48.976;8.306;2022-09-20T08:21:01;12.90;90.30
10316;DHT22;5203;48.976;8.306;2022-09-20T08:23:32;13.10;88.30
10316;DHT22;5203;48.976;8.306;2022-09-20T08:25:58;13.10;87.10
10316;DHT22;5203;48.976;8.306;2022-09-20T08:28:23;13.20;88.50
10316;DHT22;5203;48.976;8.306;2022-09-20T08:30:49;13.50;85.60
10316;DHT22;5203;48.976;8.306;2022-09-20T08:33:15;13.60;85.40
10316;DHT22;5203;48.976;8.306;2022-09-20T08:35:41;13.70;84.90
10316;DHT22;5203;48.976;8.306;2022-09-20T08:38:06;13.80;86.70
10316;DHT22;5203;48.976;8.306;2022-09-20T08:40:32;13.70;81.50
10316;DHT22;5203;48.976;8.306;2022-09-20T08:43:00;13.80;79.20
10316;DHT22;5203;48.976;8.306;2022-09-20T08:45:26;13.90;79.70
10316;DHT22;5203;48.976;8.306;2022-09-20T08:47:59;13.90;82.30
10316;DHT22;5203;48.976;8.306;2022-09-20T08:50:26;13.90;81.20
10316;DHT22;5203;48.976;8.306;2022-09-20T08:52:54;14.10;81.70
10316;DHT22;5203;48.976;8.306;2022-09-20T08:55:24;14.20;77.30
10316;DHT22;5203;48.976;8.306;2022-09-20T08:57:55;14.40;78.30
10316;DHT22;5203;48.976;8.306;2022-09-20T09:00:28;14.60;74.50
10316;DHT22;5203;48.976;8.306;2022-09-20T09:02:57;14.90;75.90
10316;DHT22;5203;48.976;8.306;2022-09-20T09:05:39;15.00;72.70
10316;DHT22;5203;48.976;8.306;2022-09-20T09:08:16;14.80;72.60
10316;DHT22;5203;48.976;8.306;2022-09-20T09:10:55;15.10;69.90
10316;DHT22;5203;48.976;8.306;2022-09-20T09:13:31;15.40;70.40
10316;DHT22;5203;48.976;8.306;2022-09-20T09:16:06;15.60;69.70
10316;DHT22;5203;48.976;8.306;2022-09-20T09:18:40;15.70;66.10
10316;DHT22;5203;48.976;8.306;2022-09-20T09:21:07;15.40;66.70
10316;DHT22;5203;48.976;8.306;2022-09-20T09:24:02;15.50;67.30
10316;DHT22;5203;48.976;8.306;2022-09-20T09:26:35;15.60;67.50
10316;DHT22;5203;48.976;8.306;2022-09-20T09:29:22;16.00;65.00
10316;DHT22;5203;48.976;8.306;2022-09-20T09:31:50;16.20;63.60
10316;DHT22;5203;48.976;8.306;2022-09-20T09:34:29;16.20;64.80
10316;DHT22;5203;48.976;8.306;2022-09-20T09:36:56;16.20;63.20
10316;DHT22;5203;48.976;8.306;2022-09-20T09:39:30;16.30;61.40
10316;DHT22;5203;48.976;8.306;2022-09-20T09:41:57;16.20;60.90
10316;DHT22;5203;48.976;8.306;2022-09-20T09:44:27;16.20;63.20
10316;DHT22;5203;48.976;8.306;2022-09-20T09:46:53;16.10;62.50
10316;DHT22;5203;48.976;8.306;2022-09-20T09:49:21;16.20;63.30
10316;DHT22;5203;48.976;8.306;2022-09-20T09:52:11;16.00;62.60
10316;DHT22;5203;48.976;8.306;2022-09-20T09:54:50;16.30;63.30
10316;DHT22;5203;48.976;8.306;2022-09-20T09:57:52;16.40;61.20
10316;DHT22;5203;48.976;8.306;2022-09-20T10:00:23;16.90;60.50
10316;DHT22;5203;48.976;8.306;2022-09-20T10:10:45;17.30;56.80
10316;DHT22;5203;48.976;8.306;2022-09-20T10:40:08;17.50;52.20
10316;DHT22;5203;48.976;8.306;2022-09-20T10:42:48;17.40;52.60
10316;DHT22;5203;48.976;8.306;2022-09-20T10:52:07;17.60;50.60
10316;DHT22;5203;48.976;8.306;2022-09-20T11:06:17;17.30;53.60
10316;DHT22;5203;48.976;8.306;2022-09-20T11:08:48;17.20;55.20
10316;DHT22;5203;48.976;8.306;2022-09-20T11:11:36;17.30;54.70
10316;DHT22;5203;48.976;8.306;2022-09-20T11:14:13;17.20;53.50
10316;DHT22;5203;48.976;8.306;2022-09-20T11:16:59;17.30;53.00
10316;DHT22;5203;48.976;8.306;2022-09-20T11:22:29;16.90;54.60
10316;DHT22;5203;48.976;8.306;2022-09-20T11:25:15;17.20;53.50
10316;DHT22;5203;48.976;8.306;2022-09-20T11:27:50;17.50;52.70
10316;DHT22;5203;48.976;8.306;2022-09-20T11:30:21;17.80;52.10
10316;DHT22;5203;48.976;8.306;2022-09-20T11:35:32;18.50;50.70
10316;DHT22;5203;48.976;8.306;2022-09-20T11:41:01;18.90;48.20
10316;DHT22;5203;48.976;8.306;2022-09-20T11:43:30;19.00;46.30
10316;DHT22;5203;48.976;8.306;2022-09-20T11:46:03;19.10;45.00
10316;DHT22;5203;48.976;8.306;2022-09-20T11:49:15;19.70;43.10
10316;DHT22;5203;48.976;8.306;2022-09-20T11:51:58;19.60;44.00
10316;DHT22;5203;48.976;8.306;2022-09-20T11:57:12;19.30;46.40
10316;DHT22;5203;48.976;8.306;2022-09-20T11:59:42;19.50;47.60
10316;DHT22;5203;48.976;8.306;2022-09-20T12:04:46;19.80;42.10
10316;DHT22;5203;48.976;8.306;2022-09-20T12:07:24;19.40;46.00
10316;DHT22;5203;48.976;8.306;2022-09-20T12:09:54;19.30;45.00
10316;DHT22;5203;48.976;8.306;2022-09-20T12:12:31;18.90;47.60
10316;DHT22;5203;48.976;8.306;2022-09-20T12:15:00;18.70;52.10
10316;DHT22;5203;48.976;8.306;2022-09-20T12:39:24;19.50;41.20
10316;DHT22;5203;48.976;8.306;2022-09-20T12:47:21;19.00;40.00
10316;DHT22;5203;48.976;8.306;2022-09-20T12:55:52;18.30;44.60
10316;DHT22;5203;48.976;8.306;2022-09-20T12:58:27;18.20;47.90
10316;DHT22;5203;48.976;8.306;2022-09-20T13:03:27;18.10;49.00
10316;DHT22;5203;48.976;8.306;2022-09-20T13:11:39;18.20;48.20
10316;DHT22;5203;48.976;8.306;2022-09-20T13:14:09;18.30;46.10
10316;DHT22;5203;48.976;8.306;2022-09-20T13:19:23;18.40;46.00
10316;DHT22;5203;48.976;8.306;2022-09-20T13:22:10;18.50;45.00
10316;DHT22;5203;48.976;8.306;2022-09-20T13:24:42;18.40;47.30
10316;DHT22;5203;48.976;8.306;2022-09-20T13:27:20;18.40;47.40
10316;DHT22;5203;48.976;8.306;2022-09-20T13:29:46;18.80;52.00
10316;DHT22;5203;48.976;8.306;2022-09-20T13:40:22;20.70;49.00
10316;DHT22;5203;48.976;8.306;2022-09-20T13:42:51;21.40;45.00
10316;DHT22;5203;48.976;8.306;2022-09-20T13:45:19;21.60;42.10
10316;DHT22;5203;48.976;8.306;2022-09-20T13:47:52;21.80;40.60
10316;DHT22;5203;48.976;8.306;2022-09-20T13:52:53;21.90;39.70
10316;DHT22;5203;48.976;8.306;2022-09-20T13:58:27;22.00;38.10
10316;DHT22;5203;48.976;8.306;2022-09-20T14:00:58;21.80;37.30
10316;DHT22;5203;48.976;8.306;2022-09-20T14:03:26;21.10;38.20
10316;DHT22;5203;48.976;8.306;2022-09-20T14:05:59;21.10;39.70
10316;DHT22;5203;48.976;8.306;2022-09-20T14:08:39;21.30;39.90
10316;DHT22;5203;48.976;8.306;2022-09-20T14:11:15;21.70;38.90
10316;DHT22;5203;48.976;8.306;2022-09-20T14:13:48;21.80;38.80
10316;DHT22;5203;48.976;8.306;2022-09-20T14:16:15;21.90;37.40
10316;DHT22;5203;48.976;8.306;2022-09-20T14:18:42;21.60;37.90
10316;DHT22;5203;48.976;8.306;2022-09-20T14:21:13;21.30;37.90
10316;DHT22;5203;48.976;8.306;2022-09-20T14:23:56;21.00;39.50
10316;DHT22;5203;48.976;8.306;2022-09-20T14:26:29;20.80;40.00
10316;DHT22;5203;48.976;8.306;2022-09-20T14:32:00;20.40;41.50
10316;DHT22;5203;48.976;8.306;2022-09-20T14:34:29;20.40;42.70
10316;DHT22;5203;48.976;8.306;2022-09-20T14:37:06;20.30;45.10
10316;DHT22;5203;48.976;8.306;2022-09-20T14:39:36;20.10;44.00
10316;DHT22;5203;48.976;8.306;2022-09-20T14:42:35;20.00;44.10
10316;DHT22;5203;48.976;8.306;2022-09-20T14:45:05;19.90;43.00
10316;DHT22;5203;48.976;8.306;2022-09-20T14:47:37;19.50;44.50
10316;DHT22;5203;48.976;8.306;2022-09-20T14:50:25;19.50;45.40
10316;DHT22;5203;48.976;8.306;2022-09-20T14:55:57;20.80;40.10
10316;DHT22;5203;48.976;8.306;2022-09-20T14:58:26;22.00;37.90
10316;DHT22;5203;48.976;8.306;2022-09-20T15:03:45;22.10;36.50
10316;DHT22;5203;48.976;8.306;2022-09-20T15:06:11;21.10;38.80
10316;DHT22;5203;48.976;8.306;2022-09-20T15:08:38;20.70;39.80
10316;DHT22;5203;48.976;8.306;2022-09-20T15:11:04;20.50;41.90
10316;DHT22;5203;48.976;8.306;2022-09-20T15:13:30;20.50;41.40
10316;DHT22;5203;48.976;8.306;2022-09-20T15:15:57;20.40;42.70
10316;DHT22;5203;48.976;8.306;2022-09-20T15:18:30;20.20;43.60
10316;DHT22;5203;48.976;8.306;2022-09-20T15:20:59;20.00;44.20
10316;DHT22;5203;48.976;8.306;2022-09-20T15:23:25;19.50;44.10
10316;DHT22;5203;48.976;8.306;2022-09-20T15:25:53;19.20;47.20
10316;DHT22;5203;48.976;8.306;2022-09-20T15:28:20;19.00;49.10
10316;DHT22;5203;48.976;8.306;2022-09-20T15:30:47;18.80;49.50
10316;DHT22;5203;48.976;8.306;2022-09-20T15:33:15;18.80;50.10
10316;DHT22;5203;48.976;8.306;2022-09-20T15:35:42;18.70;51.30
10316;DHT22;5203;48.976;8.306;2022-09-20T15:38:08;18.70;54.60
10316;DHT22;5203;48.976;8.306;2022-09-20T15:40:46;18.60;50.80
10316;DHT22;5203;48.976;8.306;2022-09-20T15:43:16;18.40;50.80
10316;DHT22;5203;48.976;8.306;2022-09-20T15:45:51;18.40;52.00
10316;DHT22;5203;48.976;8.306;2022-09-20T15:48:18;18.40;50.50
10316;DHT22;5203;48.976;8.306;2022-09-20T15:53:34;18.10;52.20
10316;DHT22;5203;48.976;8.306;2022-09-20T15:56:02;18.10;52.90
10316;DHT22;5203;48.976;8.306;2022-09-20T15:58:30;17.90;54.10
10316;DHT22;5203;48.976;8.306;2022-09-20T16:01:08;17.70;56.20
10316;DHT22;5203;48.976;8.306;2022-09-20T16:03:35;17.60;59.50
10316;DHT22;5203;48.976;8.306;2022-09-20T16:06:02;17.50;59.80
10316;DHT22;5203;48.976;8.306;2022-09-20T16:08:36;17.50;60.60
10316;DHT22;5203;48.976;8.306;2022-09-20T16:11:04;17.50;62.10
10316;DHT22;5203;48.976;8.306;2022-09-20T16:13:30;17.50;63.00
10316;DHT22;5203;48.976;8.306;2022-09-20T16:15:58;17.60;63.50
10316;DHT22;5203;48.976;8.306;2022-09-20T16:18:25;17.70;59.70
10316;DHT22;5203;48.976;8.306;2022-09-20T16:21:11;17.70;60.30
10316;DHT22;5203;48.976;8.306;2022-09-20T16:23:39;17.70;61.10
10316;DHT22;5203;48.976;8.306;2022-09-20T16:26:06;17.60;62.00
10316;DHT22;5203;48.976;8.306;2022-09-20T16:28:39;17.50;62.70
10316;DHT22;5203;48.976;8.306;2022-09-20T16:31:05;17.30;64.50
10316;DHT22;5203;48.976;8.306;2022-09-20T16:33:31;17.20;65.10
10316;DHT22;5203;48.976;8.306;2022-09-20T16:35:58;17.10;66.90
10316;DHT22;5203;48.976;8.306;2022-09-20T16:38:24;17.10;67.70
10316;DHT22;5203;48.976;8.306;2022-09-20T16:40:51;16.90;69.10
10316;DHT22;5203;48.976;8.306;2022-09-20T16:43:18;16.80;70.00
10316;DHT22;5203;48.976;8.306;2022-09-20T16:46:00;16.90;69.50
10316;DHT22;5203;48.976;8.306;2022-09-20T16:48:26;17.00;68.80
10316;DHT22;5203;48.976;8.306;2022-09-20T16:50:55;16.90;69.30
10316;DHT22;5203;48.976;8.306;2022-09-20T16:53:21;16.80;67.60
10316;DHT22;5203;48.976;8.306;2022-09-20T16:55:47;16.80;68.70
10316;DHT22;5203;48.976;8.306;2022-09-20T16:58:13;16.80;69.10
10316;DHT22;5203;48.976;8.306;2022-09-20T17:00:39;16.80;70.30
10316;DHT22;5203;48.976;8.306;2022-09-20T17:03:05;16.70;70.80
10316;DHT22;5203;48.976;8.306;2022-09-20T17:05:32;16.70;70.10
10316;DHT22;5203;48.976;8.306;2022-09-20T17:07:58;16.60;70.80
10316;DHT22;5203;48.976;8.306;2022-09-20T17:10:25;16.70;70.90
10316;DHT22;5203;48.976;8.306;2022-09-20T17:12:53;16.70;71.10
10316;DHT22;5203;48.976;8.306;2022-09-20T17:15:22;16.70;69.70
10316;DHT22;5203;48.976;8.306;2022-09-20T17:17:48;16.60;70.50
10316;DHT22;5203;48.976;8.306;2022-09-20T17:20:14;16.50;71.40
10316;DHT22;5203;48.976;8.306;2022-09-20T17:22:40;16.50;71.90
10316;DHT22;5203;48.976;8.306;2022-09-20T17:25:07;16.60;71.80
10316;DHT22;5203;48.976;8.306;2022-09-20T17:27:32;16.60;72.10
10316;DHT22;5203;48.976;8.306;2022-09-20T17:29:58;16.60;72.30
10316;DHT22;5203;48.976;8.306;2022-09-20T17:32:24;16.60;72.80
10316;DHT22;5203;48.976;8.306;2022-09-20T17:34:50;16.60;73.80
10316;DHT22;5203;48.976;8.306;2022-09-20T17:37:15;16.50;74.60
10316;DHT22;5203;48.976;8.306;2022-09-20T17:39:41;16.50;74.40
10316;DHT22;5203;48.976;8.306;2022-09-20T17:42:06;16.40;74.70
10316;DHT22;5203;48.976;8.306;2022-09-20T17:44:32;16.40;75.10
10316;DHT22;5203;48.976;8.306;2022-09-20T17:47:02;16.30;74.30
10316;DHT22;5203;48.976;8.306;2022-09-20T17:49:28;16.40;74.10
10316;DHT22;5203;48.976;8.306;2022-09-20T17:51:55;16.40;74.70
10316;DHT22;5203;48.976;8.306;2022-09-20T17:54:21;16.40;75.10
10316;DHT22;5203;48.976;8.306;2022-09-20T17:56:50;16.30;75.20
10316;DHT22;5203;48.976;8.306;2022-09-20T17:59:17;16.30;75.50
10316;DHT22;5203;48.976;8.306;2022-09-20T18:01:44;16.30;76.80
10316;DHT22;5203;48.976;8.306;2022-09-20T18:04:11;16.20;76.80
10316;DHT22;5203;48.976;8.306;2022-09-20T18:06:45;16.10;76.90
10316;DHT22;5203;48.976;8.306;2022-09-20T18:09:14;16.20;77.10
10316;DHT22;5203;48.976;8.306;2022-09-20T18:11:42;16.10;77.70
10316;DHT22;5203;48.976;8.306;2022-09-20T18:14:09;16.00;78.70
10316;DHT22;5203;48.976;8.306;2022-09-20T18:16:36;15.80;80.40
10316;DHT22;5203;48.976;8.306;2022-09-20T18:19:03;15.80;80.40
10316;DHT22;5203;48.976;8.306;2022-09-20T18:21:30;15.80;79.90
10316;DHT22;5203;48.976;8.306;2022-09-20T18:23:56;15.80;78.00
10316;DHT22;5203;48.976;8.306;2022-09-20T18:26:27;15.80;78.40
10316;DHT22;5203;48.976;8.306;2022-09-20T18:28:58;15.80;80.40
10316;DHT22;5203;48.976;8.306;2022-09-20T18:31:42;15.80;80.90
10316;DHT22;5203;48.976;8.306;2022-09-20T18:34:21;15.70;81.90
10316;DHT22;5203;48.976;8.306;2022-09-20T18:36:50;15.60;81.40
10316;DHT22;5203;48.976;8.306;2022-09-20T18:39:24;15.70;80.90
10316;DHT22;5203;48.976;8.306;2022-09-20T18:41:50;15.50;82.00
10316;DHT22;5203;48.976;8.306;2022-09-20T18:44:18;15.60;81.30
10316;DHT22;5203;48.976;8.306;2022-09-20T18:46:44;15.60;81.30
10316;DHT22;5203;48.976;8.306;2022-09-20T18:49:11;15.70;81.00
10316;DHT22;5203;48.976;8.306;2022-09-20T18:51:40;15.60;81.60
10316;DHT22;5203;48.976;8.306;2022-09-20T18:54:07;15.60;81.10
10316;DHT22;5203;48.976;8.306;2022-09-20T18:56:35;15.60;81.30
10316;DHT22;5203;48.976;8.306;2022-09-20T18:59:04;15.50;82.20
10316;DHT22;5203;48.976;8.306;2022-09-20T19:10:30;15.60;82.00
10316;DHT22;5203;48.976;8.306;2022-09-20T19:16:05;15.70;82.90
10316;DHT22;5203;48.976;8.306;2022-09-20T19:21:58;15.50;83.80
10316;DHT22;5203;48.976;8.306;2022-09-20T19:27:04;15.50;84.30
10316;DHT22;5203;48.976;8.306;2022-09-20T19:29:30;15.50;83.90
10316;DHT22;5203;48.976;8.306;2022-09-20T19:31:57;15.50;84.20
10316;DHT22;5203;48.976;8.306;2022-09-20T19:34:28;15.30;85.10
10316;DHT22;5203;48.976;8.306;2022-09-20T19:42:49;15.10;85.90
10316;DHT22;5203;48.976;8.306;2022-09-20T19:45:36;15.10;86.50
10316;DHT22;5203;48.976;8.306;2022-09-20T19:48:12;15.00;86.40
10316;DHT22;5203;48.976;8.306;2022-09-20T19:50:45;15.00;86.60
10316;DHT22;5203;48.976;8.306;2022-09-20T19:53:13;15.00;86.30
10316;DHT22;5203;48.976;8.306;2022-09-20T19:55:44;15.00;86.40
10316;DHT22;5203;48.976;8.306;2022-09-20T19:58:12;15.00;87.10
10316;DHT22;5203;48.976;8.306;2022-09-20T20:00:38;14.90;87.60
10316;DHT22;5203;48.976;8.306;2022-09-20T20:03:05;14.90;87.40
10316;DHT22;5203;48.976;8.306;2022-09-20T20:05:31;14.90;87.20
10316;DHT22;5203;48.976;8.306;2022-09-20T20:08:18;14.90;87.40
10316;DHT22;5203;48.976;8.306;2022-09-20T20:13:50;14.70;87.20
10316;DHT22;5203;48.976;8.306;2022-09-20T20:27:09;14.70;86.90
10316;DHT22;5203;48.976;8.306;2022-09-20T20:29:35;14.60;87.60
10316;DHT22;5203;48.976;8.306;2022-09-20T20:32:01;14.40;89.40
10316;DHT22;5203;48.976;8.306;2022-09-20T20:34:26;14.30;89.80
10316;DHT22;5203;48.976;8.306;2022-09-20T20:36:52;14.30;89.30
10316;DHT22;5203;48.976;8.306;2022-09-20T20:39:26;14.40;88.60
10316;DHT22;5203;48.976;8.306;2022-09-20T20:41:53;14.40;88.40
10316;DHT22;5203;48.976;8.306;2022-09-20T20:44:19;14.40;88.30
10316;DHT22;5203;48.976;8.306;2022-09-20T20:46:47;14.40;88.50
10316;DHT22;5203;48.976;8.306;2022-09-20T20:49:15;14.30;88.90
10316;DHT22;5203;48.976;8.306;2022-09-20T20:51:42;14.10;89.40
10316;DHT22;5203;48.976;8.306;2022-09-20T20:54:07;14.10;89.20
10316;DHT22;5203;48.976;8.306;2022-09-20T20:56:35;14.10;89.20
10316;DHT22;5203;48.976;8.306;2022-09-20T20:59:03;14.20;88.80
10316;DHT22;5203;48.976;8.306;2022-09-20T21:01:31;14.30;87.70
10316;DHT22;5203;48.976;8.306;2022-09-20T21:03:58;14.30;87.10
10316;DHT22;5203;48.976;8.306;2022-09-20T21:06:28;14.30;87.00
10316;DHT22;5203;48.976;8.306;2022-09-20T21:08:54;14.30;87.00
10316;DHT22;5203;48.976;8.306;2022-09-20T21:11:26;14.20;87.10
10316;DHT22;5203;48.976;8.306;2022-09-20T21:13:54;14.30;87.00
10316;DHT22;5203;48.976;8.306;2022-09-20T21:16:26;14.20;86.70
10316;DHT22;5203;48.976;8.306;2022-09-20T21:18:53;14.30;86.70
10316;DHT22;5203;48.976;8.306;2022-09-20T21:21:19;14.30;86.90
10316;DHT22;5203;48.976;8.306;2022-09-20T21:23:48;14.30;86.40
10316;DHT22;5203;48.976;8.306;2022-09-20T21:26:15;14.30;86.00
10316;DHT22;5203;48.976;8.306;2022-09-20T21:28:43;14.20;86.80
10316;DHT22;5203;48.976;8.306;2022-09-20T21:31:10;14.00;87.60
10316;DHT22;5203;48.976;8.306;2022-09-20T21:33:40;14.00;87.60
10316;DHT22;5203;48.976;8.306;2022-09-20T21:36:08;13.80;88.80
10316;DHT22;5203;48.976;8.306;2022-09-20T21:38:34;13.80;88.50
10316;DHT22;5203;48.976;8.306;2022-09-20T21:41:18;13.80;88.30
10316;DHT22;5203;48.976;8.306;2022-09-20T21:43:45;13.70;88.50
10316;DHT22;5203;48.976;8.306;2022-09-20T21:46:16;13.80;88.10
10316;DHT22;5203;48.976;8.306;2022-09-20T21:48:42;13.80;87.60
10316;DHT22;5203;48.976;8.306;2022-09-20T21:51:10;13.80;87.40
10316;DHT22;5203;48.976;8.306;2022-09-20T21:53:36;13.90;87.20
10316;DHT22;5203;48.976;8.306;2022-09-20T21:56:08;14.00;86.30
10316;DHT22;5203;48.976;8.306;2022-09-20T21:58:34;14.10;85.70
10316;DHT22;5203;48.976;8.306;2022-09-20T22:01:12;14.00;85.00
10316;DHT22;5203;48.976;8.306;2022-09-20T22:03:46;14.00;85.00
10316;DHT22;5203;48.976;8.306;2022-09-20T22:06:14;13.90;84.70
10316;DHT22;5203;48.976;8.306;2022-09-20T22:08:47;13.80;85.30
10316;DHT22;5203;48.976;8.306;2022-09-20T22:11:13;13.80;84.50
10316;DHT22;5203;48.976;8.306;2022-09-20T22:13:42;13.70;85.20
10316;DHT22;5203;48.976;8.306;2022-09-20T22:18:44;13.80;84.60
10316;DHT22;5203;48.976;8.306;2022-09-20T22:21:15;13.70;85.10
10316;DHT22;5203;48.976;8.306;2022-09-20T22:23:42;13.60;84.40